Time;durP1;ratioP1;P1;durP2;ratioP2;P2;SDS_P1;SDS_P2;PMS_P1;PMS_P2;Temp;Humidity;BMP_temperature;BMP_pressure;BME280_temperature;BME280_humidity;BME280_pressure;Samples;Min_cycle;Max_cycle;Signal;HPM_P1;HPM_P2
2020/12/24 00:02:03;;;;;;;2.70;1.07;;;11.20;99.90;;;;;;5032770;28;20735;-60
2020/12/24 00:04:28;;;;;;;1.80;0.20;;;11.20;99.90;;;;;;5030997;28;20212;-60
2020/12/24 00:06:54;;;;;;;1.90;0.40;;;11.10;99.90;;;;;;5033104;28;20176;-60
2020/12/24 00:09:20;;;;;;;1.90;0.30;;;11.10;99.90;;;;;;5029431;28;20178;-60
2020/12/24 00:11:46;;;;;;;1.83;0.30;;;11.10;99.90;;;;;;5031850;28;20178;-61
2020/12/24 00:14:11;;;;;;;1.90;0.30;;;11.10;99.90;;;;;;5033252;28;20432;-61
2020/12/24 00:16:37;;;;;;;2.10;0.50;;;11.00;99.90;;;;;;5030191;28;20269;-60
2020/12/24 00:19:02;;;;;;;1.90;0.50;;;11.00;99.90;;;;;;5030574;28;20182;-60
2020/12/24 00:21:28;;;;;;;1.80;0.20;;;11.00;99.90;;;;;;5031811;28;20286;-60
2020/12/24 00:23:53;;;;;;;1.83;0.40;;;11.00;99.90;;;;;;5029127;28;20190;-60
2020/12/24 00:26:19;;;;;;;3.20;0.93;;;11.00;99.90;;;;;;5029729;28;20232;-60
2020/12/24 00:28:44;;;;;;;3.10;0.60;;;10.90;99.90;;;;;;5012689;28;20182;-60
2020/12/24 00:31:10;;;;;;;1.80;0.30;;;10.90;99.90;;;;;;5030465;28;20711;-61
2020/12/24 00:33:35;;;;;;;2.23;0.67;;;10.90;99.90;;;;;;5035084;28;20277;-61
2020/12/24 00:36:02;;;;;;;2.67;0.67;;;10.90;99.90;;;;;;5028511;28;20640;-61
2020/12/24 00:38:28;;;;;;;2.83;0.77;;;10.80;99.90;;;;;;5029316;28;20669;-60
2020/12/24 00:40:54;;;;;;;2.00;0.30;;;10.70;99.90;;;;;;5031662;28;20560;-60
2020/12/24 00:43:20;;;;;;;2.67;1.33;;;10.70;99.90;;;;;;5013388;28;20452;-60
2020/12/24 00:45:45;;;;;;;3.77;0.60;;;10.60;99.90;;;;;;5030933;28;20490;-61
2020/12/24 00:48:11;;;;;;;1.80;0.30;;;10.60;99.90;;;;;;5032116;28;20885;-60
2020/12/24 00:50:37;;;;;;;1.80;0.30;;;10.50;99.90;;;;;;5030832;28;20210;-61
2020/12/24 00:53:02;;;;;;;3.43;0.70;;;10.60;99.90;;;;;;5030696;28;20209;-60
2020/12/24 00:55:28;;;;;;;2.10;0.50;;;10.50;99.90;;;;;;5028119;28;20198;-62
2020/12/24 00:57:53;;;;;;;4.50;0.87;;;10.50;99.90;;;;;;5028976;28;20195;-59
2020/12/24 01:00:19;;;;;;;2.20;0.30;;;10.50;99.90;;;;;;5026441;28;20245;-60
2020/12/24 01:02:44;;;;;;;1.97;0.50;;;10.50;99.90;;;;;;5030458;28;20190;-62
2020/12/24 01:05:10;;;;;;;1.90;0.40;;;10.50;99.90;;;;;;5029860;28;20462;-60
2020/12/24 01:07:35;;;;;;;1.80;0.30;;;10.50;99.90;;;;;;5028309;28;20240;-63
2020/12/24 01:10:05;;;;;;;1.80;0.20;;;10.50;99.90;;;;;;5030308;28;20214;-60
2020/12/24 01:12:31;;;;;;;2.10;0.40;;;10.50;99.90;;;;;;5026764;28;20178;-62
2020/12/24 01:14:57;;;;;;;2.40;0.40;;;10.50;99.90;;;;;;5030512;28;20445;-62
2020/12/24 01:17:22;;;;;;;2.00;0.37;;;10.50;99.90;;;;;;5025823;28;20532;-60
2020/12/24 01:19:48;;;;;;;3.30;0.50;;;10.40;99.90;;;;;;5029368;28;20267;-60
2020/12/24 01:22:13;;;;;;;2.47;0.60;;;10.50;99.90;;;;;;5032857;28;20190;-60
2020/12/24 01:24:39;;;;;;;2.43;1.00;;;10.40;99.90;;;;;;5024697;28;20232;-60
2020/12/24 01:27:04;;;;;;;4.80;1.17;;;10.40;99.90;;;;;;5011208;28;20536;-59
2020/12/24 01:29:30;;;;;;;4.10;0.40;;;10.40;99.90;;;;;;5031808;28;20182;-59
2020/12/24 01:31:56;;;;;;;4.63;0.70;;;10.30;99.90;;;;;;5025613;28;20174;-60
2020/12/24 01:34:21;;;;;;;1.90;0.50;;;10.40;99.90;;;;;;5029338;28;20516;-66
2020/12/24 01:36:47;;;;;;;2.57;0.43;;;10.30;99.90;;;;;;5027441;28;20189;-59
2020/12/24 01:39:13;;;;;;;2.40;0.50;;;10.30;99.90;;;;;;5025812;28;20190;-60
2020/12/24 01:41:39;;;;;;;3.00;0.70;;;10.30;99.90;;;;;;5031764;28;20319;-59
2020/12/24 01:44:05;;;;;;;1.83;0.30;;;10.30;99.90;;;;;;5027645;28;20269;-59
2020/12/24 01:46:31;;;;;;;3.20;0.83;;;10.30;99.90;;;;;;5027718;28;20526;-59
2020/12/24 01:48:56;;;;;;;1.87;0.47;;;10.30;99.90;;;;;;5030671;28;20475;-61
2020/12/24 01:51:30;;;;;;;1.77;0.20;;;10.20;99.90;;;;;;5028277;28;20252;-58
2020/12/24 01:53:58;;;;;;;3.13;0.87;;;10.20;99.90;;;;;;5024914;28;20518;-60
2020/12/24 01:56:25;;;;;;;2.80;0.53;;;10.30;99.90;;;;;;5024968;28;20445;-59
2020/12/24 01:58:51;;;;;;;2.77;0.83;;;10.20;99.90;;;;;;5027740;28;20440;-62
2020/12/24 02:01:17;;;;;;;4.93;0.83;;;10.20;99.90;;;;;;5027391;28;20517;-59
2020/12/24 02:03:43;;;;;;;7.87;6.00;;;10.20;99.90;;;;;;5027958;28;20451;-60
2020/12/24 02:06:10;;;;;;;5.13;0.90;;;10.20;99.90;;;;;;5028847;28;20468;-62
2020/12/24 02:08:35;;;;;;;4.00;1.00;;;10.20;99.90;;;;;;5027973;28;20201;-60
2020/12/24 02:11:01;;;;;;;3.43;1.10;;;10.10;99.90;;;;;;5026291;28;20461;-61
2020/12/24 02:13:27;;;;;;;2.57;0.57;;;10.20;99.90;;;;;;5028261;28;20196;-59
2020/12/24 02:15:52;;;;;;;3.10;0.63;;;10.10;99.90;;;;;;5024699;28;20265;-59
2020/12/24 02:18:18;;;;;;;3.80;1.20;;;10.10;99.90;;;;;;5030500;28;20190;-59
2020/12/24 02:20:44;;;;;;;5.00;0.70;;;10.10;99.90;;;;;;5024263;28;20293;-60
2020/12/24 02:23:10;;;;;;;4.77;0.80;;;10.00;99.90;;;;;;5022207;28;20186;-61
2020/12/24 02:25:36;;;;;;;9.83;0.60;;;10.00;99.90;;;;;;5024761;28;20565;-60
2020/12/24 02:28:03;;;;;;;2.13;0.50;;;10.00;99.90;;;;;;5027785;28;20468;-60
2020/12/24 02:30:28;;;;;;;3.90;0.60;;;10.00;99.90;;;;;;5028795;28;20735;-62
2020/12/24 02:32:54;;;;;;;5.30;0.60;;;9.90;99.90;;;;;;5028826;28;20432;-60
2020/12/24 02:35:20;;;;;;;1.90;0.63;;;9.90;99.90;;;;;;5025932;28;20284;-61
2020/12/24 02:37:46;;;;;;;4.10;1.60;;;10.00;99.90;;;;;;5028390;28;20190;-63
2020/12/24 02:40:11;;;;;;;3.60;0.50;;;9.90;99.90;;;;;;5030450;28;20471;-59
2020/12/24 02:42:37;;;;;;;3.03;0.60;;;9.90;99.90;;;;;;5028709;28;20300;-60
2020/12/24 02:45:04;;;;;;;2.70;0.73;;;9.90;99.90;;;;;;5027392;28;20216;-62
2020/12/24 02:47:29;;;;;;;2.73;0.50;;;9.90;99.90;;;;;;5027646;28;20178;-59
2020/12/24 02:49:55;;;;;;;4.67;0.43;;;9.80;99.90;;;;;;5028082;28;20462;-59
2020/12/24 02:52:21;;;;;;;4.57;0.50;;;9.80;99.90;;;;;;5029666;28;20194;-59
2020/12/24 02:54:46;;;;;;;6.70;0.80;;;9.70;99.90;;;;;;5026743;28;20436;-60
2020/12/24 02:57:12;;;;;;;3.10;0.53;;;9.70;99.90;;;;;;5028767;28;20189;-59
2020/12/24 02:59:39;;;;;;;2.50;0.40;;;9.60;99.90;;;;;;5025545;28;20204;-59
2020/12/24 03:02:04;;;;;;;3.33;0.60;;;9.60;99.90;;;;;;5022472;28;20206;-62
2020/12/24 03:04:31;;;;;;;2.47;0.30;;;9.60;99.90;;;;;;5029471;28;20820;-60
2020/12/24 03:06:56;;;;;;;2.00;0.40;;;9.60;99.90;;;;;;5031308;28;20240;-66
2020/12/24 03:09:22;;;;;;;1.70;0.20;;;9.60;99.90;;;;;;5027380;28;20822;-59
2020/12/24 03:11:50;;;;;;;27.10;1.53;;;9.50;99.90;;;;;;5028645;28;20186;-61
2020/12/24 03:14:17;;;;;;;2.30;0.50;;;9.50;99.90;;;;;;5029676;28;20277;-60
2020/12/24 03:16:43;;;;;;;4.17;1.03;;;9.50;99.90;;;;;;5027268;28;20441;-59
2020/12/24 03:19:09;;;;;;;1.73;0.27;;;9.50;99.90;;;;;;5029927;28;20482;-59
2020/12/24 03:21:35;;;;;;;2.80;0.60;;;9.50;99.90;;;;;;5027461;28;21018;-59
2020/12/24 03:24:00;;;;;;;1.90;0.20;;;9.50;99.90;;;;;;5026994;28;20611;-60
2020/12/24 03:26:26;;;;;;;2.93;0.50;;;9.50;99.90;;;;;;5030714;28;20201;-60
2020/12/24 03:28:51;;;;;;;3.33;0.40;;;9.50;99.90;;;;;;5030462;28;20205;-59
2020/12/24 03:31:22;;;;;;;2.50;0.73;;;9.50;99.90;;;;;;5033442;28;20280;-59
2020/12/24 03:33:48;;;;;;;1.80;0.50;;;9.50;99.90;;;;;;5031807;28;20653;-60
2020/12/24 03:36:13;;;;;;;1.70;0.20;;;9.50;99.90;;;;;;5025487;28;20536;-59
2020/12/24 03:38:39;;;;;;;2.07;0.50;;;9.50;99.90;;;;;;5032562;28;20441;-60
2020/12/24 03:41:04;;;;;;;1.70;0.20;;;9.50;99.90;;;;;;5030774;28;20611;-59
2020/12/24 03:43:30;;;;;;;1.70;0.20;;;9.40;99.90;;;;;;5030295;28;20661;-59
2020/12/24 03:45:55;;;;;;;2.53;1.03;;;9.40;99.90;;;;;;5032797;28;20216;-60
2020/12/24 03:48:21;;;;;;;2.17;0.70;;;9.40;99.90;;;;;;5033453;28;20239;-59
2020/12/24 03:50:47;;;;;;;4.17;0.60;;;9.40;99.90;;;;;;5030984;28;20581;-59
2020/12/24 03:53:13;;;;;;;1.70;0.20;;;9.40;99.90;;;;;;5031558;28;20449;-64
2020/12/24 03:55:38;;;;;;;3.03;0.50;;;9.40;99.90;;;;;;5032268;28;20190;-62
2020/12/24 03:58:04;;;;;;;1.70;0.20;;;9.30;99.90;;;;;;5030975;28;20675;-60
2020/12/24 04:00:29;;;;;;;2.23;0.47;;;9.40;99.90;;;;;;5033824;28;20201;-59
2020/12/24 04:02:55;;;;;;;1.70;0.20;;;9.40;99.90;;;;;;5031629;28;20598;-63
2020/12/24 04:05:20;;;;;;;2.00;0.40;;;9.40;99.90;;;;;;5030778;28;20217;-59
2020/12/24 04:07:49;;;;;;;1.70;0.20;;;9.50;99.90;;;;;;5028459;28;20261;-59
2020/12/24 04:10:16;;;;;;;1.70;0.20;;;9.40;99.90;;;;;;5029185;28;20274;-59
2020/12/24 04:12:41;;;;;;;1.70;0.20;;;9.40;99.90;;;;;;5032093;28;20848;-64
2020/12/24 04:15:07;;;;;;;3.60;1.50;;;9.40;99.90;;;;;;5031714;28;20464;-59
2020/12/24 04:17:32;;;;;;;1.70;0.20;;;9.40;99.90;;;;;;5029655;28;20189;-60
2020/12/24 04:19:58;;;;;;;1.70;0.20;;;9.30;99.90;;;;;;5029796;28;20545;-65
2020/12/24 04:22:23;;;;;;;3.13;1.53;;;9.30;99.90;;;;;;5026356;28;20261;-59
2020/12/24 04:24:49;;;;;;;1.70;0.20;;;9.30;99.90;;;;;;5025791;28;20205;-59
2020/12/24 04:27:14;;;;;;;5.70;1.07;;;9.30;99.90;;;;;;5031380;28;20190;-63
2020/12/24 04:29:40;;;;;;;1.70;0.20;;;9.30;99.90;;;;;;5031005;28;20186;-62
2020/12/24 04:32:05;;;;;;;1.70;0.20;;;9.30;99.90;;;;;;5030027;28;20190;-60
2020/12/24 04:34:31;;;;;;;1.70;0.20;;;9.30;99.90;;;;;;5032472;28;20991;-60
2020/12/24 04:36:56;;;;;;;1.70;0.20;;;9.20;99.90;;;;;;5030710;28;20269;-63
2020/12/24 04:39:22;;;;;;;1.70;0.20;;;9.30;99.90;;;;;;5030284;28;20542;-60
2020/12/24 04:41:47;;;;;;;1.80;0.40;;;9.20;99.90;;;;;;5034102;28;20193;-60
2020/12/24 04:44:14;;;;;;;1.90;0.47;;;9.30;99.90;;;;;;5029484;28;20645;-60
2020/12/24 04:46:42;;;;;;;7.93;0.90;;;9.30;99.90;;;;;;5030450;28;20197;-59
2020/12/24 04:49:08;;;;;;;1.90;0.57;;;9.30;99.90;;;;;;5032083;28;20448;-59
2020/12/24 04:51:34;;;;;;;1.70;0.20;;;9.40;99.90;;;;;;5029031;28;20479;-60
2020/12/24 04:54:01;;;;;;;1.70;0.20;;;9.40;99.90;;;;;;5030231;28;20448;-59
2020/12/24 04:56:26;;;;;;;1.93;0.63;;;9.40;99.90;;;;;;5025012;28;20647;-60
2020/12/24 04:58:53;;;;;;;4.13;0.57;;;9.50;99.90;;;;;;5028212;28;20465;-61
2020/12/24 05:01:19;;;;;;;1.70;0.20;;;9.50;99.90;;;;;;5029930;28;20241;-60
2020/12/24 05:03:46;;;;;;;2.20;0.60;;;9.50;99.90;;;;;;5029085;28;20456;-59
2020/12/24 05:06:16;;;;;;;1.80;0.40;;;9.50;99.90;;;;;;5029548;28;20476;-60
2020/12/24 05:08:53;;;;;;;8.23;1.73;;;9.50;99.90;;;;;;5030837;28;20437;-59
2020/12/24 05:11:32;;;;;;;1.90;0.50;;;9.40;99.90;;;;;;5028553;28;20462;-59
2020/12/24 05:14:16;;;;;;;2.03;0.73;;;9.40;99.90;;;;;;5028500;28;20459;-59
2020/12/24 05:17:02;;;;;;;1.80;0.30;;;9.40;99.90;;;;;;5011918;28;20527;-62
2020/12/24 05:19:30;;;;;;;1.90;0.50;;;9.40;99.90;;;;;;5016904;28;20492;-62
2020/12/24 05:21:57;;;;;;;2.03;0.50;;;9.50;99.90;;;;;;5024173;28;20477;-59
2020/12/24 05:24:27;;;;;;;1.70;0.20;;;9.50;99.90;;;;;;5020691;28;20491;-60
2020/12/24 05:27:32;;;;;;;6.70;0.77;;;9.50;99.90;;;;;;5023358;28;20433;-59
2020/12/24 05:29:57;;;;;;;2.13;0.40;;;9.60;99.90;;;;;;5024431;28;20971;-60
2020/12/24 05:32:30;;;;;;;1.70;0.20;;;9.50;99.90;;;;;;5022833;28;20441;-60
2020/12/24 05:35:07;;;;;;;1.70;0.30;;;9.50;99.90;;;;;;5037957;28;20185;-60
2020/12/24 05:37:33;;;;;;;1.90;0.70;;;9.50;99.90;;;;;;5028026;28;20832;-61
2020/12/24 05:40:15;;;;;;;3.07;0.40;;;9.50;99.90;;;;;;5023231;28;20504;-61
2020/12/24 05:42:55;;;;;;;3.10;0.87;;;9.50;99.90;;;;;;5029293;28;20213;-59
2020/12/24 05:45:23;;;;;;;1.80;0.30;;;9.50;99.90;;;;;;5026564;28;20541;-60
2020/12/24 05:48:07;;;;;;;3.60;0.50;;;9.50;99.90;;;;;;5026805;28;20456;-63
2020/12/24 05:50:32;;;;;;;1.70;0.20;;;9.40;99.90;;;;;;5030275;28;20510;-60
2020/12/24 05:53:27;;;;;;;1.97;0.50;;;9.50;99.90;;;;;;5031195;28;20448;-61
2020/12/24 05:55:54;;;;;;;1.70;0.20;;;9.40;99.90;;;;;;5007340;28;20248;-60
2020/12/24 05:58:19;;;;;;;1.70;0.20;;;9.40;99.90;;;;;;5022146;28;20505;-65
2020/12/24 06:00:45;;;;;;;2.20;0.60;;;9.40;99.90;;;;;;5024363;28;20959;-59
2020/12/24 06:03:17;;;;;;;5.10;0.60;;;9.40;99.90;;;;;;5020551;28;20194;-59
2020/12/24 06:05:52;;;;;;;2.07;0.30;;;9.30;99.90;;;;;;5020013;28;20760;-61
2020/12/24 06:08:24;;;;;;;1.80;0.30;;;9.30;99.90;;;;;;5029994;28;21106;-59
2020/12/24 06:11:02;;;;;;;2.23;0.30;;;9.30;99.90;;;;;;5025517;28;20474;-63
2020/12/24 06:13:42;;;;;;;2.07;0.83;;;9.30;99.90;;;;;;5024477;28;20502;-58
2020/12/24 06:16:12;;;;;;;1.70;0.20;;;9.20;99.90;;;;;;5023900;28;20482;-59
2020/12/24 06:18:47;;;;;;;1.80;0.40;;;9.20;99.90;;;;;;5024120;28;20954;-63
2020/12/24 06:21:17;;;;;;;2.57;0.30;;;9.20;99.90;;;;;;5023392;28;20521;-61
2020/12/24 06:23:56;;;;;;;1.80;0.40;;;9.10;99.90;;;;;;5022445;28;20453;-59
2020/12/24 06:26:25;;;;;;;6.23;1.33;;;9.00;99.90;;;;;;5022218;28;20559;-59
2020/12/24 06:28:55;;;;;;;1.70;0.20;;;9.00;99.90;;;;;;5029208;28;20448;-61
2020/12/24 06:31:22;;;;;;;1.70;0.20;;;8.90;99.90;;;;;;5023098;28;20471;-60
2020/12/24 06:33:47;;;;;;;1.70;0.20;;;8.90;99.90;;;;;;5026459;28;20440;-59
2020/12/24 06:36:33;;;;;;;1.80;0.43;;;8.70;99.90;;;;;;5026075;28;20445;-60
2020/12/24 06:38:59;;;;;;;3.50;2.70;;;8.60;99.90;;;;;;5030170;28;20190;-60
2020/12/24 06:41:29;;;;;;;2.83;0.30;;;8.50;99.90;;;;;;5025951;28;20468;-59
2020/12/24 06:43:55;;;;;;;1.70;0.20;;;8.40;99.90;;;;;;5027793;28;20274;-60
2020/12/24 06:46:21;;;;;;;3.70;0.50;;;8.30;99.90;;;;;;5026333;28;20804;-66
2020/12/24 06:49:06;;;;;;;2.10;0.20;;;8.30;99.90;;;;;;5028736;28;20435;-59
2020/12/24 06:51:50;;;;;;;1.70;0.20;;;8.20;99.90;;;;;;5027303;28;20476;-63
2020/12/24 06:54:19;;;;;;;1.70;0.20;;;8.20;99.90;;;;;;5022148;28;20484;-62
2020/12/24 06:56:45;;;;;;;1.70;0.20;;;8.20;99.90;;;;;;5029722;28;20950;-60
2020/12/24 06:59:19;;;;;;;1.70;0.20;;;8.20;99.90;;;;;;5028405;28;20554;-60
2020/12/24 07:02:00;;;;;;;1.70;0.20;;;8.30;99.90;;;;;;5027646;28;20202;-60
2020/12/24 07:04:40;;;;;;;1.70;0.20;;;8.30;99.90;;;;;;5033242;28;20432;-64
2020/12/24 07:07:06;;;;;;;3.03;0.93;;;8.30;99.90;;;;;;5027718;28;20935;-64
2020/12/24 07:09:32;;;;;;;3.70;0.63;;;8.30;99.90;;;;;;5032751;28;20433;-61
2020/12/24 07:11:58;;;;;;;1.80;0.40;;;8.20;99.90;;;;;;5035192;28;20444;-60
2020/12/24 07:14:33;;;;;;;2.77;0.60;;;8.10;99.90;;;;;;5029372;28;20196;-60
2020/12/24 07:17:13;;;;;;;1.70;0.20;;;8.10;99.90;;;;;;5035553;28;20440;-60
2020/12/24 07:19:46;;;;;;;1.90;0.53;;;8.10;99.90;;;;;;5031906;28;20440;-59
2020/12/24 07:22:15;;;;;;;1.80;0.33;;;8.10;99.90;;;;;;5032456;28;20437;-59
2020/12/24 07:24:55;;;;;;;1.70;0.20;;;8.10;99.90;;;;;;5033482;28;20472;-63
2020/12/24 07:27:21;;;;;;;2.60;0.60;;;8.10;99.90;;;;;;5032721;28;20519;-61
2020/12/24 07:29:47;;;;;;;1.70;0.20;;;8.20;99.90;;;;;;5028585;28;20457;-60
2020/12/24 07:32:13;;;;;;;1.90;0.53;;;8.20;99.90;;;;;;5034434;28;20528;-62
2020/12/24 07:34:39;;;;;;;1.80;0.20;;;8.10;99.90;;;;;;5032842;28;20768;-62
2020/12/24 07:37:05;;;;;;;1.90;0.40;;;8.10;99.90;;;;;;5032613;28;20526;-59
2020/12/24 07:39:31;;;;;;;1.70;0.20;;;8.00;99.90;;;;;;5033766;28;20642;-59
2020/12/24 07:41:57;;;;;;;2.37;0.63;;;8.00;99.90;;;;;;5035237;28;20448;-59
2020/12/24 07:44:23;;;;;;;1.70;0.20;;;8.00;99.90;;;;;;5029268;28;20519;-62
2020/12/24 07:46:51;;;;;;;3.20;0.97;;;8.00;99.90;;;;;;5043391;28;20518;-60
2020/12/24 07:49:18;;;;;;;1.70;0.20;;;7.90;99.90;;;;;;5034033;28;20448;-59
2020/12/24 07:51:53;;;;;;;1.70;0.20;;;8.00;99.90;;;;;;5029773;28;20832;-60
2020/12/24 07:54:23;;;;;;;1.80;0.20;;;8.00;99.90;;;;;;5033180;28;20443;-60
2020/12/24 07:56:48;;;;;;;1.70;0.20;;;7.90;99.90;;;;;;5033706;28;20524;-59
2020/12/24 07:59:16;;;;;;;5.60;1.17;;;8.00;99.90;;;;;;5031294;28;20514;-60
2020/12/24 08:01:42;;;;;;;2.97;0.67;;;7.90;99.90;;;;;;5031716;28;20221;-65
2020/12/24 08:04:08;;;;;;;3.30;1.20;;;7.90;99.90;;;;;;5030797;28;20548;-63
2020/12/24 08:06:34;;;;;;;2.77;0.53;;;7.90;99.90;;;;;;5031636;28;20222;-62
2020/12/24 08:09:07;;;;;;;1.73;0.20;;;7.80;99.90;;;;;;5033498;28;20205;-61
2020/12/24 08:11:33;;;;;;;2.83;0.80;;;7.80;99.90;;;;;;5046960;22;20499;-68
2020/12/24 08:13:58;;;;;;;2.57;0.77;;;7.80;99.90;;;;;;5050741;28;20439;-68
2020/12/24 08:16:26;;;;;;;4.10;0.83;;;7.80;99.90;;;;;;5057207;28;20185;-68
2020/12/24 08:18:59;;;;;;;1.93;0.37;;;7.80;99.90;;;;;;5054317;28;20185;-68
2020/12/24 08:21:29;;;;;;;1.80;0.30;;;7.80;99.90;;;;;;5049403;28;20456;-67
2020/12/24 08:24:00;;;;;;;1.80;0.30;;;7.90;99.90;;;;;;5044136;28;20992;-67
2020/12/24 08:26:26;;;;;;;1.70;0.20;;;7.80;99.90;;;;;;5042740;28;20550;-67
2020/12/24 08:28:55;;;;;;;1.90;0.50;;;7.90;99.90;;;;;;5036016;28;20536;-68
2020/12/24 08:31:23;;;;;;;2.20;0.60;;;7.90;99.90;;;;;;5042069;28;20475;-68
2020/12/24 08:33:51;;;;;;;1.80;0.30;;;7.90;99.90;;;;;;5042713;28;20448;-68
2020/12/24 08:36:22;;;;;;;2.40;0.50;;;7.90;99.90;;;;;;5042323;28;20467;-68
2020/12/24 08:38:48;;;;;;;1.70;0.20;;;7.90;99.90;;;;;;5046424;28;20470;-67
2020/12/24 08:41:24;;;;;;;1.70;0.20;;;7.90;99.90;;;;;;5039128;28;20471;-68
2020/12/24 08:43:52;;;;;;;1.80;0.30;;;7.80;99.90;;;;;;5043664;28;20435;-68
2020/12/24 08:46:17;;;;;;;1.97;0.43;;;7.80;99.90;;;;;;5040714;28;20472;-68
2020/12/24 08:48:43;;;;;;;3.53;0.80;;;7.80;99.90;;;;;;5044922;28;20440;-67
2020/12/24 08:51:13;;;;;;;3.87;1.23;;;7.80;99.90;;;;;;5026411;28;20213;-67
2020/12/24 08:53:39;;;;;;;1.90;0.50;;;7.80;99.90;;;;;;5046602;28;20189;-66
2020/12/24 08:56:15;;;;;;;2.70;0.53;;;7.80;99.90;;;;;;5032341;28;20444;-64
2020/12/24 08:58:51;;;;;;;2.97;0.60;;;7.80;99.90;;;;;;5044744;28;20691;-64
2020/12/24 09:01:18;;;;;;;1.70;0.20;;;7.70;99.90;;;;;;5036739;28;20468;-70
2020/12/24 09:03:44;;;;;;;1.80;0.40;;;7.80;99.90;;;;;;5040635;28;20480;-66
2020/12/24 09:06:11;;;;;;;2.53;0.40;;;7.80;99.90;;;;;;5041987;28;20478;-67
2020/12/24 09:08:39;;;;;;;2.33;0.93;;;7.70;99.90;;;;;;5038932;28;20463;-67
2020/12/24 09:11:05;;;;;;;2.83;0.47;;;7.70;99.90;;;;;;5038367;28;20462;-67
2020/12/24 09:13:30;;;;;;;2.27;0.57;;;7.70;99.90;;;;;;5057935;28;20440;-66
2020/12/24 09:15:56;;;;;;;2.93;0.40;;;7.80;99.90;;;;;;5056494;28;20843;-68
2020/12/24 09:18:21;;;;;;;1.80;0.30;;;7.80;99.90;;;;;;5057356;28;20201;-67
2020/12/24 09:20:47;;;;;;;1.70;0.20;;;7.70;99.90;;;;;;5053935;28;20304;-67
2020/12/24 09:23:15;;;;;;;2.47;0.60;;;7.80;99.90;;;;;;5040734;28;20551;-71
2020/12/24 09:25:45;;;;;;;5.33;0.63;;;7.80;99.90;;;;;;5045632;28;20241;-71
2020/12/24 09:28:24;;;;;;;3.30;0.97;;;7.80;99.90;;;;;;5042431;28;20438;-75
2020/12/24 09:30:52;;;;;;;1.70;0.20;;;7.80;99.90;;;;;;5037674;28;20443;-68
2020/12/24 09:33:18;;;;;;;2.07;0.37;;;7.70;99.90;;;;;;5041776;28;20438;-69
2020/12/24 09:35:44;;;;;;;2.73;0.60;;;7.80;99.90;;;;;;5035245;28;20428;-65
2020/12/24 09:38:10;;;;;;;1.80;0.20;;;7.80;99.90;;;;;;5039535;28;20534;-71
2020/12/24 09:40:35;;;;;;;2.63;0.40;;;7.80;99.90;;;;;;5042298;28;20265;-67
2020/12/24 09:43:01;;;;;;;1.80;0.30;;;7.70;99.90;;;;;;5041374;28;20262;-68
2020/12/24 09:45:28;;;;;;;1.70;0.20;;;7.70;99.90;;;;;;5040994;28;20209;-69
2020/12/24 09:47:54;;;;;;;1.80;0.40;;;7.70;99.90;;;;;;5025514;28;20544;-69
2020/12/24 09:50:20;;;;;;;1.70;0.20;;;7.70;99.90;;;;;;5042174;28;20492;-69
2020/12/24 09:52:45;;;;;;;1.70;0.20;;;7.60;99.90;;;;;;5024286;28;20280;-69
2020/12/24 09:55:11;;;;;;;2.20;0.40;;;7.70;99.90;;;;;;5043351;28;20559;-68
2020/12/24 09:57:36;;;;;;;2.77;0.60;;;7.70;99.90;;;;;;5043853;28;20196;-69
2020/12/24 10:00:07;;;;;;;2.47;0.30;;;7.60;99.90;;;;;;5027093;28;20652;-69
2020/12/24 10:02:32;;;;;;;1.70;0.20;;;7.60;99.90;;;;;;5040783;28;20202;-69
2020/12/24 10:04:58;;;;;;;2.77;0.30;;;7.60;99.90;;;;;;5028242;28;20462;-68
2020/12/24 10:07:24;;;;;;;1.70;0.20;;;7.60;99.90;;;;;;5042695;28;20189;-68
2020/12/24 10:09:50;;;;;;;1.70;0.20;;;7.60;99.90;;;;;;5040323;28;20527;-67
2020/12/24 10:12:23;;;;;;;1.70;0.20;;;7.70;99.90;;;;;;5040382;28;20221;-69
2020/12/24 10:14:49;;;;;;;1.80;0.30;;;7.70;99.90;;;;;;5042769;28;20466;-68
2020/12/24 10:17:15;;;;;;;1.70;0.20;;;7.80;99.90;;;;;;5044029;28;20421;-67
2020/12/24 10:19:43;;;;;;;1.80;0.30;;;7.80;99.90;;;;;;5038498;28;20447;-68
2020/12/24 10:22:09;;;;;;;2.13;0.70;;;7.70;99.90;;;;;;5044678;28;20200;-68
2020/12/24 10:24:36;;;;;;;2.30;0.43;;;7.80;99.90;;;;;;5035640;28;20977;-68
2020/12/24 10:27:02;;;;;;;1.80;0.30;;;7.80;99.90;;;;;;5038285;28;20795;-69
2020/12/24 10:29:27;;;;;;;2.70;0.30;;;7.80;99.90;;;;;;5042327;28;20440;-68
2020/12/24 10:31:53;;;;;;;1.90;0.40;;;7.80;99.90;;;;;;5040242;28;20288;-69
2020/12/24 10:34:18;;;;;;;2.37;0.30;;;7.90;99.90;;;;;;5038211;28;20544;-68
2020/12/24 10:36:44;;;;;;;1.90;0.40;;;7.90;99.90;;;;;;5036282;28;20221;-68
2020/12/24 10:39:09;;;;;;;2.57;0.50;;;7.90;99.90;;;;;;5037035;28;20190;-68
2020/12/24 10:41:42;;;;;;;2.57;0.30;;;8.00;99.90;;;;;;5027320;28;20208;-69
2020/12/24 10:44:08;;;;;;;2.20;0.30;;;8.00;99.90;;;;;;5044586;28;20188;-68
2020/12/24 10:46:35;;;;;;;1.70;0.20;;;8.00;99.90;;;;;;5043068;28;20475;-68
2020/12/24 10:49:01;;;;;;;1.80;0.30;;;8.00;99.90;;;;;;5038041;28;20930;-68
2020/12/24 10:51:27;;;;;;;1.70;0.30;;;8.00;99.90;;;;;;5042443;28;20466;-68
2020/12/24 10:53:53;;;;;;;2.30;0.40;;;8.00;99.90;;;;;;5038941;28;20515;-68
2020/12/24 10:56:18;;;;;;;1.70;0.20;;;8.00;99.90;;;;;;5041793;28;20187;-69
2020/12/24 10:58:45;;;;;;;1.70;0.20;;;8.10;99.90;;;;;;5028283;28;20857;-68
2020/12/24 11:01:14;;;;;;;1.80;0.40;;;8.10;99.90;;;;;;5043631;28;20208;-65
2020/12/24 11:03:41;;;;;;;1.97;0.40;;;8.20;99.90;;;;;;5044308;28;20508;-67
2020/12/24 11:06:07;;;;;;;1.80;0.30;;;8.20;99.90;;;;;;5038163;28;20463;-68
2020/12/24 11:08:33;;;;;;;2.13;0.80;;;8.20;99.90;;;;;;5039909;28;20436;-67
2020/12/24 11:11:00;;;;;;;1.80;0.30;;;8.30;99.90;;;;;;5036265;28;20448;-67
2020/12/24 11:13:25;;;;;;;1.73;0.20;;;8.30;99.90;;;;;;5035010;28;20436;-67
2020/12/24 11:15:51;;;;;;;1.80;0.30;;;8.30;99.90;;;;;;5035454;28;20506;-67
2020/12/24 11:18:17;;;;;;;2.63;0.90;;;8.40;99.90;;;;;;5036459;28;20286;-67
2020/12/24 11:20:42;;;;;;;2.00;0.40;;;8.40;99.90;;;;;;5034932;28;20692;-67
2020/12/24 11:23:08;;;;;;;2.17;0.30;;;8.40;99.90;;;;;;5038261;28;20669;-67
2020/12/24 11:25:34;;;;;;;1.83;0.37;;;8.40;99.90;;;;;;5037487;28;20217;-67
2020/12/24 11:28:01;;;;;;;1.80;0.20;;;8.40;99.90;;;;;;5040574;28;20201;-67
2020/12/24 11:30:27;;;;;;;2.57;0.47;;;8.50;99.90;;;;;;5039539;28;20483;-67
2020/12/24 11:32:52;;;;;;;1.70;0.20;;;8.50;99.90;;;;;;5036203;28;20464;-67
2020/12/24 11:35:18;;;;;;;1.80;0.30;;;8.40;99.90;;;;;;5038264;28;20477;-67
2020/12/24 11:37:43;;;;;;;3.70;0.83;;;8.50;99.90;;;;;;5037616;28;22599;-68
2020/12/24 11:40:09;;;;;;;1.80;0.40;;;8.50;99.90;;;;;;5046523;28;20518;-67
2020/12/24 11:42:34;;;;;;;2.93;0.40;;;8.40;99.90;;;;;;5035037;28;20216;-66
2020/12/24 11:45:00;;;;;;;1.70;0.20;;;8.40;99.90;;;;;;5048005;28;20224;-67
2020/12/24 11:47:26;;;;;;;3.37;0.50;;;8.50;99.90;;;;;;5046196;28;20200;-67
2020/12/24 11:49:51;;;;;;;1.70;0.20;;;8.60;99.90;;;;;;5036867;28;20583;-67
2020/12/24 11:52:17;;;;;;;1.80;0.40;;;8.50;99.90;;;;;;5042359;28;20514;-65
2020/12/24 11:54:42;;;;;;;2.00;0.40;;;8.50;99.90;;;;;;5048699;28;20547;-68
2020/12/24 11:57:08;;;;;;;3.00;1.50;;;8.60;99.90;;;;;;5039799;28;20682;-66
2020/12/24 11:59:34;;;;;;;1.90;0.57;;;8.60;99.90;;;;;;5047516;28;20181;-66
2020/12/24 12:02:00;;;;;;;1.90;0.30;;;8.70;99.90;;;;;;5045796;28;20531;-67
2020/12/24 12:04:27;;;;;;;1.80;0.30;;;8.60;99.90;;;;;;5038509;28;20535;-67
2020/12/24 12:06:52;;;;;;;1.73;0.30;;;8.70;99.90;;;;;;5039274;28;20216;-67
2020/12/24 12:09:18;;;;;;;2.57;0.87;;;8.80;99.90;;;;;;5042451;28;20440;-67
2020/12/24 12:11:47;;;;;;;1.90;0.47;;;8.80;99.90;;;;;;5044071;28;20279;-67
2020/12/24 12:14:13;;;;;;;1.80;0.30;;;8.90;99.90;;;;;;5042612;28;20194;-67
2020/12/24 12:16:39;;;;;;;1.77;0.20;;;8.90;99.90;;;;;;5039243;28;20446;-67
2020/12/24 12:19:04;;;;;;;2.17;0.47;;;8.90;99.90;;;;;;5044869;28;20212;-67
2020/12/24 12:21:30;;;;;;;1.80;0.20;;;9.00;99.90;;;;;;5035936;28;20230;-67
2020/12/24 12:23:56;;;;;;;1.90;0.40;;;9.00;99.90;;;;;;5008475;28;20199;-68
2020/12/24 12:26:21;;;;;;;1.70;0.20;;;9.00;99.90;;;;;;5009527;28;20567;-67
2020/12/24 12:28:47;;;;;;;1.90;0.53;;;9.00;99.90;;;;;;5010143;28;20452;-67
2020/12/24 12:31:18;;;;;;;2.67;1.17;;;9.00;99.90;;;;;;4996334;28;20615;-67
2020/12/24 12:33:43;;;;;;;1.80;0.20;;;8.90;99.90;;;;;;5013994;28;20185;-67
2020/12/24 12:36:09;;;;;;;1.80;0.40;;;8.90;99.90;;;;;;5015492;28;20441;-67
2020/12/24 12:38:34;;;;;;;1.97;0.30;;;8.90;99.90;;;;;;4992683;28;20634;-67
2020/12/24 12:41:00;;;;;;;1.70;0.20;;;8.90;99.90;;;;;;5014479;28;20269;-67
2020/12/24 12:43:25;;;;;;;1.73;0.20;;;8.90;99.90;;;;;;5015943;28;20280;-66
2020/12/24 12:45:51;;;;;;;1.70;0.20;;;8.90;99.90;;;;;;5011285;28;20210;-66
2020/12/24 12:48:16;;;;;;;1.80;0.30;;;8.90;99.90;;;;;;5013864;28;20589;-67
2020/12/24 12:50:42;;;;;;;1.90;0.30;;;9.00;99.90;;;;;;5011662;28;20186;-67
2020/12/24 12:53:08;;;;;;;1.70;0.20;;;9.00;99.90;;;;;;5009185;28;20306;-67
2020/12/24 12:55:34;;;;;;;1.80;0.30;;;9.00;99.90;;;;;;5012835;28;20449;-68
2020/12/24 12:58:00;;;;;;;1.90;0.30;;;9.00;99.90;;;;;;5014665;28;20236;-67